Time;durP1;ratioP1;P1;durP2;ratioP2;P2;SDS_P1;SDS_P2;PMS_P1;PMS_P2;Temp;Humidity;BMP_temperature;BMP_pressure;BME280_temperature;BME280_humidity;BME280_pressure;Samples;Min_cycle;Max_cycle;Signal;HPM_P1;HPM_P2
2022/02/03 00:00:36;;;;;;;10.32;9.30;;;7.40;99.90;;;;;;5040736;28;20690;-81
2022/02/03 00:03:12;;;;;;;11.77;10.13;;;7.40;99.90;;;;;;5043091;28;20210;-79
2022/02/03 00:05:45;;;;;;;13.50;10.77;;;7.40;99.90;;;;;;5040537;28;20202;-79
2022/02/03 00:08:21;;;;;;;13.82;10.52;;;7.20;99.90;;;;;;5040221;28;20306;-80
2022/02/03 00:22:14;;;;;;;12.23;10.93;;;7.30;99.90;;;;;;5038376;28;20245;-80
2022/02/03 00:24:58;;;;;;;11.77;10.57;;;7.30;99.90;;;;;;5037131;28;20233;-80
2022/02/03 00:27:51;;;;;;;11.57;10.43;;;7.30;99.90;;;;;;5044867;28;20230;-81
2022/02/03 00:30:22;;;;;;;13.32;11.00;;;7.30;99.90;;;;;;5039847;28;20244;-82
2022/02/03 00:35:58;;;;;;;10.57;9.68;;;7.40;99.90;;;;;;5028870;28;20748;-81
2022/02/03 00:48:13;;;;;;;13.82;11.45;;;7.50;99.90;;;;;;5039068;28;20613;-81
2022/02/03 00:49:53;;;;;;;12.27;10.65;;;7.70;99.90;;;;;;5036579;28;20205;-81
2022/02/03 00:52:20;;;;;;;12.65;10.73;;;7.70;99.90;;;;;;5035646;28;20195;-81
2022/02/03 00:54:47;;;;;;;13.60;11.23;;;7.60;99.90;;;;;;5037721;28;20226;-82
2022/02/03 00:57:22;;;;;;;12.32;10.93;;;7.60;99.90;;;;;;5039730;28;20210;-82
2022/02/03 00:59:57;;;;;;;13.45;11.65;;;7.50;99.90;;;;;;5039140;28;20210;-81
2022/02/03 01:02:29;;;;;;;11.25;10.05;;;7.50;99.90;;;;;;5037901;28;20257;-81
2022/02/03 01:04:58;;;;;;;13.63;9.57;;;7.40;99.90;;;;;;5038306;28;20233;-82
2022/02/03 01:07:26;;;;;;;11.07;9.75;;;7.30;99.90;;;;;;5039075;28;20276;-82
2022/02/03 01:10:04;;;;;;;10.93;9.80;;;7.40;99.90;;;;;;5039072;28;20379;-82
2022/02/03 01:12:39;;;;;;;9.82;8.80;;;7.40;99.90;;;;;;5035288;28;20226;-80
2022/02/03 01:15:17;;;;;;;13.02;10.45;;;7.30;99.90;;;;;;5034218;28;20237;-80
2022/02/03 01:17:54;;;;;;;12.85;10.18;;;7.40;99.90;;;;;;5034344;28;20671;-80
2022/02/03 01:37:33;;;;;;;8.57;7.70;;;7.80;99.90;;;;;;4993413;28;20214;-80
2022/02/03 01:45:49;;;;;;;8.70;7.18;;;7.90;99.90;;;;;;5037731;28;20344;-82
2022/02/03 01:48:22;;;;;;;8.52;7.72;;;7.80;99.90;;;;;;5036936;28;20206;-81
2022/02/03 01:53:49;;;;;;;8.70;7.95;;;7.60;99.90;;;;;;5009300;28;20726;-80
2022/02/03 01:56:18;;;;;;;8.05;7.25;;;7.70;99.90;;;;;;5041252;28;20214;-79
2022/02/03 01:58:54;;;;;;;7.97;7.28;;;7.70;99.90;;;;;;5044231;28;20576;-81
2022/02/03 02:01:25;;;;;;;9.00;7.80;;;7.70;99.90;;;;;;5040451;28;20703;-81
2022/02/03 02:04:02;;;;;;;9.13;8.18;;;7.60;99.90;;;;;;5039828;28;20225;-82
2022/02/03 02:07:00;;;;;;;8.25;7.50;;;7.70;99.90;;;;;;5041063;28;20660;-80
2022/02/03 02:09:45;;;;;;;10.07;7.60;;;7.70;99.90;;;;;;5040798;28;20210;-79
2022/02/03 02:12:25;;;;;;;8.20;7.40;;;7.80;99.90;;;;;;5039721;28;20601;-80
2022/02/03 02:37:37;;;;;;;9.23;7.55;;;7.60;99.90;;;;;;5037133;28;20201;-80
2022/02/03 02:40:31;;;;;;;8.13;7.15;;;7.60;99.90;;;;;;5036865;28;20207;-80
2022/02/03 02:43:04;;;;;;;10.95;7.93;;;7.70;99.90;;;;;;5016887;28;20301;-80
2022/02/03 02:45:45;;;;;;;8.85;7.80;;;7.60;99.90;;;;;;5033157;28;20625;-80
2022/02/03 02:48:26;;;;;;;8.15;7.30;;;7.50;99.90;;;;;;5037380;28;20211;-80
2022/02/03 02:51:00;;;;;;;9.85;8.73;;;7.60;99.90;;;;;;5038169;28;20214;-80
2022/02/03 02:53:39;;;;;;;8.10;7.07;;;7.60;99.90;;;;;;5038634;28;20264;-80
2022/02/03 02:56:18;;;;;;;8.90;8.05;;;7.70;99.90;;;;;;5036431;28;20277;-80
2022/02/03 03:29:49;;;;;;;9.25;8.27;;;7.60;99.90;;;;;;5037909;28;20213;-80
2022/02/03 03:32:36;;;;;;;8.25;7.40;;;7.60;99.90;;;;;;5037872;28;20627;-80
2022/02/03 03:35:26;;;;;;;9.63;7.90;;;7.60;99.90;;;;;;5016605;28;20239;-80
2022/02/03 03:37:58;;;;;;;8.85;8.05;;;7.60;99.90;;;;;;5019801;28;20261;-80
2022/02/03 03:40:25;;;;;;;10.32;8.13;;;7.60;99.90;;;;;;5048117;28;20192;-79
2022/02/03 03:43:00;;;;;;;8.65;7.80;;;7.60;99.90;;;;;;5057084;28;20623;-79
2022/02/03 03:45:30;;;;;;;10.43;9.20;;;7.50;99.90;;;;;;5048431;28;20213;-80
2022/02/03 03:48:01;;;;;;;9.68;8.05;;;7.50;99.90;;;;;;5040325;28;20260;-80
2022/02/03 03:50:30;;;;;;;11.50;9.75;;;7.50;99.90;;;;;;5039013;28;20202;-80
2022/02/03 03:53:03;;;;;;;11.25;9.00;;;7.40;99.90;;;;;;5045832;28;20202;-80
2022/02/03 03:55:40;;;;;;;12.02;9.45;;;7.30;99.90;;;;;;5055215;28;20294;-80
2022/02/03 04:33:08;;;;;;;10.82;8.00;;;7.20;99.90;;;;;;5034680;28;20194;-79
2022/02/03 04:39:05;;;;;;;8.13;6.90;;;7.30;99.90;;;;;;5037385;28;20729;-81
2022/02/03 04:57:12;;;;;;;11.52;8.55;;;7.30;99.90;;;;;;5037426;28;20208;-80
2022/02/03 05:03:21;;;;;;;12.73;9.98;;;7.30;99.90;;;;;;5031940;28;20217;-81
2022/02/03 05:06:04;;;;;;;12.23;9.05;;;7.30;99.90;;;;;;5027771;28;20259;-81
2022/02/03 05:08:51;;;;;;;10.40;8.65;;;7.20;99.90;;;;;;5036922;28;20702;-80
2022/02/03 05:11:55;;;;;;;10.27;9.00;;;7.20;99.90;;;;;;5033346;28;20248;-80
2022/02/03 05:15:07;;;;;;;9.82;8.88;;;7.20;99.90;;;;;;5034057;28;20225;-79
2022/02/03 05:21:08;;;;;;;9.13;7.88;;;7.20;99.90;;;;;;5029453;28;20285;-80
2022/02/03 05:24:36;;;;;;;8.48;7.28;;;7.20;99.90;;;;;;5013526;28;20235;-80
2022/02/03 05:33:25;;;;;;;13.02;9.25;;;7.20;99.90;;;;;;5040332;28;20200;-80
2022/02/03 05:42:06;;;;;;;8.57;7.78;;;7.20;99.90;;;;;;5043554;28;20313;-79
2022/02/03 05:45:05;;;;;;;10.90;9.80;;;7.10;99.90;;;;;;5043258;28;20237;-81
2022/02/03 05:48:01;;;;;;;10.70;9.60;;;7.10;99.90;;;;;;5042787;28;20206;-80
2022/02/03 05:50:40;;;;;;;9.52;8.60;;;7.00;99.90;;;;;;5039660;28;20297;-80
2022/02/03 06:04:35;;;;;;;8.95;7.78;;;7.20;99.90;;;;;;5040411;28;20699;-80
2022/02/03 06:11:59;;;;;;;9.60;8.68;;;7.00;99.90;;;;;;5047052;28;20258;-79
2022/02/03 06:12:55;;;;;;;12.50;9.52;;;7.00;99.90;;;;;;5046410;28;20234;-79
2022/02/03 06:15:27;;;;;;;9.45;8.45;;;7.00;99.90;;;;;;5043090;28;20264;-80
2022/02/03 06:21:16;;;;;;;8.65;7.75;;;7.00;99.90;;;;;;5042871;28;20567;-79
2022/02/03 06:23:49;;;;;;;12.07;9.98;;;7.00;99.90;;;;;;5041968;28;20268;-79
2022/02/03 06:29:21;;;;;;;12.40;10.50;;;6.90;99.90;;;;;;5042845;28;20277;-78
2022/02/03 06:31:50;;;;;;;10.18;8.90;;;7.00;99.90;;;;;;5043001;28;20202;-79
2022/02/03 06:34:17;;;;;;;11.43;8.25;;;7.10;99.90;;;;;;5042199;28;20244;-79
2022/02/03 06:36:45;;;;;;;11.38;9.60;;;7.00;99.90;;;;;;5042189;28;20202;-79
2022/02/03 06:39:16;;;;;;;12.00;10.30;;;7.10;99.90;;;;;;5039787;28;20313;-79
2022/02/03 06:41:44;;;;;;;13.73;10.43;;;7.10;99.90;;;;;;5038868;28;20198;-80
2022/02/03 06:44:12;;;;;;;12.95;11.63;;;7.00;99.90;;;;;;5038926;28;20234;-79
2022/02/03 06:46:45;;;;;;;15.05;11.23;;;7.00;99.90;;;;;;5036726;28;20248;-79
2022/02/03 06:49:18;;;;;;;10.95;9.90;;;6.90;99.90;;;;;;5036307;28;20234;-79
2022/02/03 06:51:52;;;;;;;13.25;10.23;;;6.90;99.90;;;;;;5036140;28;20672;-80
2022/02/03 06:54:27;;;;;;;10.15;9.07;;;7.10;99.90;;;;;;5035996;28;20371;-79
2022/02/03 06:56:58;;;;;;;11.32;8.80;;;7.20;99.90;;;;;;5036189;28;20209;-79
2022/02/03 06:59:33;;;;;;;10.10;9.05;;;7.30;99.90;;;;;;5036065;28;20202;-79
2022/02/03 07:02:02;;;;;;;11.30;9.00;;;7.50;99.90;;;;;;5035897;28;20198;-79
2022/02/03 07:04:38;;;;;;;11.80;9.73;;;7.50;99.90;;;;;;5036068;28;20218;-79
2022/02/03 07:07:05;;;;;;;11.25;9.20;;;7.50;99.90;;;;;;5036044;28;20246;-79
2022/02/03 07:09:31;;;;;;;12.18;9.13;;;7.40;99.90;;;;;;5036009;28;20209;-79
2022/02/03 07:12:01;;;;;;;12.38;9.90;;;7.50;99.90;;;;;;5035669;28;20314;-80
2022/02/03 07:14:31;;;;;;;11.85;10.00;;;7.50;99.90;;;;;;5036323;28;20233;-79
2022/02/03 07:17:00;;;;;;;13.43;11.23;;;7.50;99.90;;;;;;5035417;28;20217;-79
2022/02/03 07:19:44;;;;;;;12.98;10.02;;;7.40;99.90;;;;;;5035638;28;20217;-79
2022/02/03 07:22:18;;;;;;;10.07;9.07;;;7.50;99.90;;;;;;5035575;28;20570;-79
2022/02/03 07:24:45;;;;;;;12.20;10.43;;;7.50;99.90;;;;;;5034258;28;20226;-80
2022/02/03 07:27:12;;;;;;;10.20;9.10;;;7.60;99.90;;;;;;5035834;28;20673;-79
2022/02/03 07:29:39;;;;;;;11.38;9.65;;;7.50;99.90;;;;;;5035807;28;20214;-79
2022/02/03 07:32:07;;;;;;;9.38;8.48;;;7.60;99.90;;;;;;5035364;28;20202;-80
2022/02/03 07:34:35;;;;;;;16.30;11.15;;;7.60;99.90;;;;;;5038381;28;20226;-79
2022/02/03 07:37:02;;;;;;;10.70;9.30;;;7.70;99.90;;;;;;5040610;28;20210;-79
2022/02/03 07:39:28;;;;;;;9.52;8.50;;;7.50;99.90;;;;;;5038665;28;20199;-79
2022/02/03 07:41:55;;;;;;;11.00;9.95;;;7.60;99.90;;;;;;5039163;28;20199;-80
2022/02/03 07:44:22;;;;;;;10.10;8.52;;;7.60;99.90;;;;;;5040299;28;20744;-82
2022/02/03 07:46:49;;;;;;;9.45;8.38;;;7.80;99.90;;;;;;5026359;28;20707;-79
2022/02/03 07:49:16;;;;;;;11.52;10.43;;;7.90;99.90;;;;;;5019940;28;20213;-79
2022/02/03 07:51:44;;;;;;;10.25;9.23;;;7.90;99.90;;;;;;5017752;28;20207;-79
2022/02/03 07:54:19;;;;;;;11.85;10.52;;;8.00;99.90;;;;;;5067948;23;20238;-79
2022/02/03 07:56:46;;;;;;;8.70;7.88;;;8.20;99.90;;;;;;5018787;28;20588;-79
2022/02/03 07:59:13;;;;;;;9.05;8.13;;;8.30;99.90;;;;;;5019130;28;20214;-79
2022/02/03 08:01:40;;;;;;;8.77;7.72;;;8.40;99.90;;;;;;5019126;28;20214;-79
2022/02/03 08:04:08;;;;;;;11.63;10.00;;;8.50;99.90;;;;;;5019063;28;20228;-79
2022/02/03 08:06:44;;;;;;;9.65;8.75;;;8.50;99.90;;;;;;5019542;28;20207;-79
2022/02/03 08:09:20;;;;;;;9.60;7.22;;;8.50;99.90;;;;;;5019192;28;20214;-79
2022/02/03 08:11:49;;;;;;;8.05;7.25;;;8.60;99.90;;;;;;5018695;28;20207;-79
2022/02/03 08:14:19;;;;;;;8.82;8.02;;;8.60;99.90;;;;;;5018713;28;20345;-79
2022/02/03 08:16:51;;;;;;;8.65;7.80;;;8.50;99.90;;;;;;5018908;28;20250;-79
2022/02/03 08:19:23;;;;;;;9.70;8.88;;;8.50;99.90;;;;;;5018620;28;20612;-79
2022/02/03 08:21:58;;;;;;;11.20;7.90;;;8.50;99.90;;;;;;5018711;28;20203;-79
2022/02/03 08:24:30;;;;;;;8.88;8.07;;;8.50;99.90;;;;;;5019237;28;20680;-80
2022/02/03 08:27:23;;;;;;;11.23;9.05;;;8.40;99.90;;;;;;5021029;28;20258;-80
2022/02/03 08:30:24;;;;;;;8.52;7.50;;;8.30;99.90;;;;;;5020440;28;20200;-79
2022/02/03 08:32:55;;;;;;;9.02;7.82;;;8.40;99.90;;;;;;5021879;28;20230;-78
2022/02/03 08:35:34;;;;;;;10.32;8.45;;;8.30;99.90;;;;;;5032230;28;20254;-78
2022/02/03 08:38:07;;;;;;;8.48;7.40;;;8.30;99.90;;;;;;5030348;28;20207;-79
2022/02/03 08:40:45;;;;;;;8.20;6.82;;;8.40;99.90;;;;;;5019781;28;20205;-79
2022/02/03 08:43:13;;;;;;;8.02;6.97;;;8.50;99.90;;;;;;5020369;28;20226;-80
2022/02/03 08:45:40;;;;;;;8.38;7.68;;;8.50;99.90;;;;;;5031134;28;20430;-78
2022/02/03 08:48:08;;;;;;;7.97;7.22;;;8.50;99.90;;;;;;5032006;28;20202;-77
2022/02/03 08:50:36;;;;;;;5.53;5.03;;;8.60;99.90;;;;;;5029325;28;20209;-79
2022/02/03 08:53:08;;;;;;;6.82;6.15;;;8.60;99.90;;;;;;5032138;28;20243;-79
2022/02/03 08:55:44;;;;;;;7.25;5.88;;;8.50;99.90;;;;;;5028633;28;20222;-79
2022/02/03 09:35:53;;;;;;;4.00;3.70;;;8.80;99.90;;;;;;4983265;28;20242;-80
2022/02/03 09:38:41;;;;;;;3.28;2.97;;;8.60;99.90;;;;;;5018378;28;20195;-80
2022/02/03 09:52:36;;;;;;;2.30;2.10;;;8.50;99.90;;;;;;5018375;28;20202;-78
2022/02/03 09:55:25;;;;;;;2.05;1.90;;;8.40;99.90;;;;;;5018910;28;20659;-80
2022/02/03 09:57:54;;;;;;;3.00;2.25;;;8.50;99.90;;;;;;5018639;28;20660;-79
2022/02/03 10:00:42;;;;;;;2.30;2.15;;;8.50;99.90;;;;;;5017996;28;20218;-80
2022/02/03 10:03:16;;;;;;;2.28;2.17;;;8.60;99.90;;;;;;5018540;28;20237;-80
2022/02/03 10:05:56;;;;;;;3.10;2.90;;;8.70;99.90;;;;;;5018585;28;20736;-80
2022/02/03 10:08:25;;;;;;;1.70;1.60;;;8.80;99.90;;;;;;5018639;28;20265;-80
2022/02/03 10:11:09;;;;;;;2.60;1.95;;;8.70;99.90;;;;;;5018312;28;20215;-80
2022/02/03 10:13:41;;;;;;;3.13;2.33;;;8.70;99.90;;;;;;5017993;28;20289;-80
2022/02/03 10:16:09;;;;;;;2.17;2.00;;;8.70;99.90;;;;;;5021777;28;20279;-79
2022/02/03 10:18:37;;;;;;;1.92;1.75;;;8.70;99.90;;;;;;5021620;28;20218;-80
2022/02/03 10:21:08;;;;;;;2.80;2.60;;;8.60;99.90;;;;;;5021883;28;20715;-79
2022/02/03 10:23:52;;;;;;;2.05;1.95;;;8.80;99.90;;;;;;5021933;28;20231;-79
2022/02/03 10:26:19;;;;;;;1.92;1.83;;;8.80;99.90;;;;;;5022092;28;20204;-80
2022/02/03 10:28:52;;;;;;;2.08;1.88;;;8.80;99.90;;;;;;5021724;28;20313;-80
2022/02/03 10:31:24;;;;;;;1.98;1.88;;;8.90;99.90;;;;;;5021234;28;20214;-81
2022/02/03 10:34:01;;;;;;;4.45;2.20;;;9.00;99.90;;;;;;5045860;22;20209;-80
2022/02/03 10:36:48;;;;;;;1.90;1.80;;;9.10;99.90;;;;;;5037365;28;20214;-82
2022/02/03 10:42:27;;;;;;;2.20;2.00;;;9.30;99.90;;;;;;5044828;28;20683;-80
2022/02/03 10:45:09;;;;;;;1.52;1.42;;;9.40;99.90;;;;;;5048663;28;20254;-83
2022/02/03 10:48:13;;;;;;;2.10;1.98;;;9.50;99.90;;;;;;5043717;28;20196;-83
2022/02/03 10:53:43;;;;;;;1.55;1.50;;;9.70;99.90;;;;;;5040585;28;20688;-83
2022/02/03 10:59:23;;;;;;;1.52;1.35;;;9.90;99.90;;;;;;5017285;28;20196;-83
2022/02/03 11:02:11;;;;;;;1.77;1.67;;;10.00;99.90;;;;;;5040047;28;20217;-83
2022/02/03 11:05:04;;;;;;;1.38;1.27;;;10.10;99.90;;;;;;5039906;28;20231;-83
2022/02/03 11:07:40;;;;;;;1.50;1.30;;;10.20;99.90;;;;;;5038439;28;20215;-83
2022/02/03 11:10:22;;;;;;;2.70;1.88;;;10.30;99.90;;;;;;5039923;28;20207;-83
2022/02/03 11:12:51;;;;;;;1.90;1.77;;;10.40;99.90;;;;;;5038843;28;20681;-83
2022/02/03 11:15:19;;;;;;;1.95;1.10;;;10.40;99.90;;;;;;5038796;28;20227;-82
2022/02/03 11:17:48;;;;;;;1.13;1.02;;;10.40;99.90;;;;;;5038800;28;20210;-81
2022/02/03 11:20:21;;;;;;;1.33;1.23;;;10.30;99.90;;;;;;5039056;28;20218;-83
2022/02/03 11:22:55;;;;;;;1.50;1.40;;;10.10;99.90;;;;;;5037894;28;20210;-82
2022/02/03 11:25:37;;;;;;;1.25;1.15;;;10.00;99.90;;;;;;5037533;28;20226;-81
2022/02/03 11:31:17;;;;;;;1.70;1.17;;;10.20;99.90;;;;;;5035415;28;20194;-81
2022/02/03 11:42:37;;;;;;;1.50;1.30;;;10.40;99.90;;;;;;5018696;28;20452;-82
2022/02/03 11:48:37;;;;;;;2.67;1.90;;;10.60;99.90;;;;;;5028844;28;20202;-82
2022/02/03 11:51:26;;;;;;;3.30;2.10;;;10.60;99.90;;;;;;5038714;28;20591;-83
2022/02/03 11:54:31;;;;;;;1.53;1.43;;;10.60;99.90;;;;;;5039651;28;20319;-83
2022/02/03 12:02:51;;;;;;;1.30;1.20;;;10.80;99.90;;;;;;5039420;28;20442;-82
2022/02/03 12:20:24;;;;;;;1.33;1.23;;;11.80;99.90;;;;;;5036274;28;20839;-82
2022/02/03 12:23:04;;;;;;;3.03;1.40;;;11.80;99.90;;;;;;5038313;28;20468;-82
2022/02/03 12:28:34;;;;;;;1.33;1.23;;;11.90;99.90;;;;;;5038067;28;20494;-82
2022/02/03 12:31:23;;;;;;;1.30;1.30;;;12.00;99.90;;;;;;5036734;28;20456;-82
2022/02/03 12:37:04;;;;;;;1.67;0.97;;;11.80;99.90;;;;;;5038000;28;20447;-84
2022/02/03 12:39:39;;;;;;;1.33;0.90;;;11.70;99.90;;;;;;5017477;28;20536;-83
2022/02/03 12:42:17;;;;;;;1.20;1.20;;;11.50;99.90;;;;;;5031490;28;20976;-82
2022/02/03 12:44:44;;;;;;;1.10;1.10;;;11.60;99.90;;;;;;5039190;28;20501;-84
2022/02/03 12:47:13;;;;;;;0.93;0.83;;;11.50;99.90;;;;;;5037195;28;20486;-82
2022/02/03 12:49:40;;;;;;;1.33;1.30;;;11.60;99.90;;;;;;5036466;28;20459;-82
2022/02/03 12:52:24;;;;;;;1.63;1.53;;;11.50;99.90;;;;;;5035562;28;20457;-82
2022/02/03 12:54:51;;;;;;;2.00;1.90;;;11.50;99.90;;;;;;5037640;28;20988;-82
2022/02/03 12:57:29;;;;;;;1.47;1.37;;;11.40;99.90;;;;;;5036950;28;20456;-83
2022/02/03 13:00:28;;;;;;;1.20;1.10;;;11.50;99.90;;;;;;5036044;28;20968;-85
2022/02/03 13:03:00;;;;;;;1.50;1.40;;;11.60;99.90;;;;;;5035964;28;20464;-82
2022/02/03 13:05:29;;;;;;;1.40;1.20;;;11.80;99.90;;;;;;5036922;28;20513;-80
2022/02/03 13:07:58;;;;;;;1.40;1.40;;;11.90;99.90;;;;;;5037253;28;20582;-83
2022/02/03 13:10:27;;;;;;;1.50;1.40;;;11.90;99.90;;;;;;5035943;28;20814;-83
2022/02/03 13:13:01;;;;;;;0.93;0.93;;;11.80;99.90;;;;;;5038155;28;20819;-83
2022/02/03 13:15:34;;;;;;;1.73;1.63;;;11.70;99.90;;;;;;5036183;28;21117;-83
2022/02/03 13:18:07;;;;;;;1.57;1.47;;;11.60;99.90;;;;;;5036680;28;20518;-83
2022/02/03 13:20:40;;;;;;;1.90;1.43;;;11.40;99.90;;;;;;5036584;28;20472;-83
2022/02/03 13:23:11;;;;;;;1.30;1.20;;;11.30;99.90;;;;;;5037390;28;20462;-81
2022/02/03 13:25:49;;;;;;;1.30;1.20;;;11.20;99.90;;;;;;5037030;28;20485;-83
2022/02/03 13:28:22;;;;;;;1.43;1.33;;;11.10;99.90;;;;;;5036138;28;20470;-83
2022/02/03 13:30:53;;;;;;;1.80;1.70;;;11.10;99.90;;;;;;5038480;28;20778;-83
2022/02/03 13:33:26;;;;;;;1.63;1.43;;;11.00;99.90;;;;;;5042365;28;20522;-83
2022/02/03 13:35:57;;;;;;;1.98;1.77;;;11.00;99.90;;;;;;5038318;28;20483;-82
2022/02/03 13:38:36;;;;;;;1.53;1.37;;;11.00;99.90;;;;;;5036895;28;20302;-82
2022/02/03 13:41:14;;;;;;;1.53;1.43;;;10.90;99.90;;;;;;5036310;28;20538;-83
2022/02/03 13:43:42;;;;;;;1.90;1.57;;;11.00;99.90;;;;;;5037835;28;20815;-83
2022/02/03 13:46:10;;;;;;;2.50;1.97;;;11.00;99.90;;;;;;5038259;28;20455;-83
2022/02/03 13:48:40;;;;;;;1.92;1.80;;;11.10;99.90;;;;;;5039415;28;20504;-83
2022/02/03 13:51:10;;;;;;;1.90;1.80;;;11.10;99.90;;;;;;5022396;28;20244;-82
2022/02/03 13:53:42;;;;;;;1.97;1.87;;;11.20;99.90;;;;;;5030956;28;20650;-80
2022/02/03 14:16:40;;;;;;;2.00;1.87;;;12.10;99.90;;;;;;5001450;28;20500;-82
2022/02/03 14:19:53;;;;;;;2.10;1.90;;;12.20;99.90;;;;;;5016955;28;20965;-83
2022/02/03 14:22:25;;;;;;;1.30;1.20;;;12.20;99.90;;;;;;5027681;28;20908;-83
2022/02/03 14:27:47;;;;;;;2.07;1.87;;;12.00;99.90;;;;;;5007517;28;20443;-81
2022/02/03 14:30:17;;;;;;;2.40;2.30;;;11.70;99.90;;;;;;5029669;28;20448;-82
2022/02/03 14:32:44;;;;;;;1.60;1.50;;;11.60;99.90;;;;;;5039771;28;20487;-83
2022/02/03 14:35:12;;;;;;;1.87;1.67;;;11.50;99.90;;;;;;5039396;28;20479;-81
2022/02/03 14:37:47;;;;;;;1.47;1.37;;;11.60;99.90;;;;;;5039904;28;20456;-83
2022/02/03 14:40:32;;;;;;;7.73;6.70;;;11.50;99.90;;;;;;5040434;28;20456;-82
2022/02/03 14:43:00;;;;;;;3.60;2.70;;;11.40;99.90;;;;;;5041024;28;20795;-83
2022/02/03 14:45:26;;;;;;;1.93;1.83;;;11.40;99.90;;;;;;5040505;28;20486;-82
2022/02/03 14:48:18;;;;;;;1.93;1.80;;;11.40;99.90;;;;;;5038803;28;20456;-83
2022/02/03 14:50:45;;;;;;;2.60;2.00;;;11.40;99.90;;;;;;5040648;28;20455;-84
2022/02/03 14:53:47;;;;;;;1.93;1.83;;;11.30;99.90;;;;;;5042414;28;20456;-83
2022/02/03 14:58:54;;;;;;;1.97;1.87;;;11.00;99.90;;;;;;5029179;28;20822;-83
2022/02/03 15:01:21;;;;;;;2.13;2.00;;;11.00;99.90;;;;;;5040411;28;20460;-82
2022/02/03 15:03:50;;;;;;;2.07;1.97;;;11.00;99.90;;;;;;5041140;28;20450;-80
2022/02/03 15:06:22;;;;;;;2.07;1.97;;;11.00;99.90;;;;;;5040924;28;20527;-83
2022/02/03 15:08:58;;;;;;;2.43;2.20;;;10.90;99.90;;;;;;5042559;28;20448;-84
2022/02/03 15:11:39;;;;;;;3.27;2.50;;;10.90;99.90;;;;;;5040937;28;20967;-82
2022/02/03 15:14:06;;;;;;;2.87;2.67;;;10.80;99.90;;;;;;5042217;28;20503;-80
2022/02/03 15:16:33;;;;;;;2.03;1.93;;;10.90;99.90;;;;;;5040055;28;20454;-82
2022/02/03 15:19:00;;;;;;;3.47;3.20;;;10.80;99.90;;;;;;5039407;28;20458;-83
2022/02/03 15:21:26;;;;;;;2.38;2.20;;;10.70;99.90;;;;;;5038623;28;21047;-83
2022/02/03 15:23:54;;;;;;;2.73;2.27;;;10.60;99.90;;;;;;5039405;28;20231;-83
2022/02/03 15:26:22;;;;;;;2.60;2.40;;;10.60;99.90;;;;;;5038739;28;20464;-83
2022/02/03 15:28:48;;;;;;;2.90;2.70;;;10.50;99.90;;;;;;5040108;28;20456;-81
2022/02/03 15:31:15;;;;;;;2.35;2.15;;;10.60;99.90;;;;;;5039236;28;20545;-82
2022/02/03 15:33:47;;;;;;;2.50;2.00;;;10.50;99.90;;;;;;5039670;28;20205;-81
2022/02/03 15:36:14;;;;;;;2.08;1.98;;;10.50;99.90;;;;;;5039238;28;20450;-82
2022/02/03 15:38:46;;;;;;;4.10;2.30;;;10.50;99.90;;;;;;5035057;28;20274;-82
2022/02/03 15:41:22;;;;;;;3.05;2.55;;;10.30;99.90;;;;;;5037539;28;20246;-82
2022/02/03 15:43:51;;;;;;;3.75;3.33;;;10.30;99.90;;;;;;5037455;28;20643;-81
2022/02/03 15:46:19;;;;;;;3.70;3.35;;;10.00;99.90;;;;;;5037406;28;20227;-82
2022/02/03 15:48:54;;;;;;;3.45;3.15;;;10.10;99.90;;;;;;5038579;28;20306;-83
2022/02/03 15:57:20;;;;;;;3.53;2.65;;;10.00;99.90;;;;;;5037636;28;20211;-81
2022/02/03 16:00:41;;;;;;;2.97;2.75;;;10.00;99.90;;;;;;5038918;28;20207;-81
2022/02/03 16:03:11;;;;;;;3.80;3.50;;;10.00;99.90;;;;;;5039140;28;20730;-84
2022/02/03 16:16:52;;;;;;;2.40;2.20;;;9.70;99.90;;;;;;5038991;28;20286;-82
2022/02/03 16:19:21;;;;;;;4.18;1.73;;;9.70;99.90;;;;;;5039362;28;20213;-82
2022/02/03 16:21:53;;;;;;;5.90;4.43;;;9.60;99.90;;;;;;5039764;28;20217;-79
2022/02/03 16:24:26;;;;;;;2.22;2.13;;;9.50;99.90;;;;;;5044388;28;20234;-80
2022/02/03 16:32:00;;;;;;;2.75;2.55;;;9.50;99.90;;;;;;5046466;28;20207;-80
2022/02/03 16:41:12;;;;;;;2.78;2.30;;;9.40;99.90;;;;;;4997467;28;20207;-81
2022/02/03 16:54:53;;;;;;;2.75;2.35;;;8.90;99.90;;;;;;5029265;28;20244;-81
2022/02/03 16:57:24;;;;;;;2.55;2.45;;;8.70;99.90;;;;;;5039337;28;20202;-85
2022/02/03 16:59:56;;;;;;;3.60;3.28;;;8.60;99.90;;;;;;5038537;28;20595;-82
2022/02/03 17:02:24;;;;;;;3.78;2.90;;;8.30;99.90;;;;;;5038691;28;20569;-82
2022/02/03 17:04:52;;;;;;;2.95;2.75;;;8.30;99.90;;;;;;5036758;28;20230;-80
2022/02/03 17:07:19;;;;;;;2.75;2.55;;;8.30;99.90;;;;;;5055201;28;20202;-79
2022/02/03 17:09:46;;;;;;;2.88;2.67;;;8.30;99.90;;;;;;5045295;28;20545;-81
2022/02/03 17:12:14;;;;;;;4.10;3.70;;;8.20;99.90;;;;;;5055931;28;20228;-80
2022/02/03 17:14:41;;;;;;;3.65;3.28;;;8.10;99.90;;;;;;5039552;28;20249;-81
2022/02/03 17:17:08;;;;;;;2.95;2.75;;;8.00;99.90;;;;;;5042740;28;20199;-83
2022/02/03 17:19:37;;;;;;;3.15;2.95;;;8.10;99.90;;;;;;5038249;28;20634;-79
2022/02/03 17:22:04;;;;;;;4.40;4.00;;;7.90;99.90;;;;;;5034138;28;20222;-81
2022/02/03 17:24:33;;;;;;;3.85;3.55;;;8.00;99.90;;;;;;5035160;28;20241;-86
2022/02/03 17:27:05;;;;;;;4.80;3.75;;;8.10;99.90;;;;;;5036324;28;20668;-82
2022/02/03 17:29:45;;;;;;;4.50;4.10;;;8.10;99.90;;;;;;5040269;28;20652;-83
2022/02/03 17:44:53;;;;;;;3.90;3.55;;;8.20;99.90;;;;;;5038168;28;20664;-81
2022/02/03 18:10:53;;;;;;;5.50;5.05;;;7.70;99.90;;;;;;5044690;28;20209;-82
2022/02/03 18:30:01;;;;;;;6.30;5.70;;;7.80;99.90;;;;;;5036221;28;20222;-80
2022/02/03 18:32:43;;;;;;;5.57;5.07;;;7.80;99.90;;;;;;5036924;28;20241;-82
2022/02/03 18:52:01;;;;;;;7.25;6.55;;;7.70;99.90;;;;;;5038371;28;20224;-81
2022/02/03 18:54:33;;;;;;;7.28;6.28;;;7.50;99.90;;;;;;5039396;28;20219;-81
2022/02/03 18:57:15;;;;;;;6.20;5.60;;;7.40;99.90;;;;;;5043728;28;20301;-83
2022/02/03 19:00:20;;;;;;;6.85;6.28;;;7.30;99.90;;;;;;5040034;28;20202;-80
2022/02/03 19:28:49;;;;;;;7.95;7.35;;;7.60;99.90;;;;;;4997397;28;20196;-81
2022/02/03 20:02:12;;;;;;;7.28;6.78;;;7.70;99.90;;;;;;5022120;28;20202;-79
2022/02/03 20:04:52;;;;;;;8.13;7.43;;;7.70;99.90;;;;;;5039425;28;20226;-81
2022/02/03 20:07:24;;;;;;;9.65;8.40;;;7.70;99.90;;;;;;5039078;28;20199;-80
2022/02/03 20:12:40;;;;;;;8.70;7.30;;;7.60;99.90;;;;;;5028099;28;20285;-80
2022/02/03 20:15:11;;;;;;;8.57;7.95;;;7.60;99.90;;;;;;5037586;28;20222;-82
2022/02/03 20:17:38;;;;;;;8.00;7.30;;;7.60;99.90;;;;;;5037613;28;20256;-80
2022/02/03 20:20:07;;;;;;;7.75;7.05;;;7.60;99.90;;;;;;5037721;28;20209;-80
2022/02/03 20:22:39;;;;;;;9.23;8.40;;;7.60;99.90;;;;;;5037516;28;20206;-82
2022/02/03 20:25:06;;;;;;;11.77;10.57;;;7.50;99.90;;;;;;5037251;28;20226;-78
2022/02/03 20:27:36;;;;;;;11.27;9.73;;;7.30;99.90;;;;;;5037273;28;20233;-78
2022/02/03 20:30:04;;;;;;;10.35;9.35;;;7.30;99.90;;;;;;5038345;28;20213;-79
2022/02/03 20:32:39;;;;;;;11.95;9.35;;;7.30;99.90;;;;;;5036285;28;20577;-79
2022/02/03 20:35:08;;;;;;;10.88;9.27;;;7.30;99.90;;;;;;5036054;28;20225;-77
2022/02/03 20:37:35;;;;;;;10.00;9.10;;;7.30;99.90;;;;;;5035787;28;20561;-78
2022/02/03 20:40:02;;;;;;;10.48;9.48;;;7.00;99.90;;;;;;5037276;28;20210;-76
2022/02/03 20:42:29;;;;;;;11.02;9.93;;;6.90;99.90;;;;;;5035254;28;20198;-80
2022/02/03 20:44:57;;;;;;;12.75;11.55;;;6.90;99.90;;;;;;5036283;28;20237;-78
2022/02/03 20:47:25;;;;;;;11.30;10.30;;;7.00;99.90;;;;;;5034176;28;20294;-78
2022/02/03 20:49:52;;;;;;;11.43;10.40;;;7.00;99.90;;;;;;5035187;28;20566;-79
2022/02/03 20:52:21;;;;;;;12.85;11.55;;;7.00;99.90;;;;;;5036650;28;20289;-79
2022/02/03 20:54:48;;;;;;;18.10;14.43;;;7.10;99.90;;;;;;5037199;28;20234;-79
2022/02/03 20:57:15;;;;;;;16.10;11.68;;;7.00;99.90;;;;;;5035849;28;20194;-79
2022/02/03 21:00:10;;;;;;;15.32;13.70;;;7.10;99.90;;;;;;5034288;28;20209;-78
2022/02/03 21:02:43;;;;;;;15.23;11.95;;;7.10;99.90;;;;;;5033855;28;20201;-79
2022/02/03 21:05:12;;;;;;;12.57;10.38;;;7.10;99.90;;;;;;5036448;28;20610;-80
2022/02/03 21:07:42;;;;;;;11.93;10.80;;;7.00;99.90;;;;;;5038260;28;20544;-78
2022/02/03 21:10:13;;;;;;;12.45;11.15;;;6.90;99.90;;;;;;5034991;28;20241;-78
2022/02/03 21:12:40;;;;;;;11.98;10.88;;;6.60;99.90;;;;;;5035468;28;20202;-79
2022/02/03 21:15:09;;;;;;;11.35;10.35;;;6.50;99.90;;;;;;5034920;28;20229;-78
2022/02/03 21:17:36;;;;;;;12.10;11.00;;;6.50;99.90;;;;;;5035642;28;20209;-78
2022/02/03 21:20:08;;;;;;;12.00;10.77;;;6.40;99.90;;;;;;5035257;28;20668;-78
2022/02/03 21:22:37;;;;;;;11.38;10.30;;;6.30;99.90;;;;;;5035658;28;20824;-78
2022/02/03 21:25:15;;;;;;;11.57;10.60;;;6.30;99.90;;;;;;5033411;28;20226;-78
2022/02/03 21:27:42;;;;;;;11.90;10.77;;;6.20;99.90;;;;;;5032517;28;20202;-78
2022/02/03 21:30:10;;;;;;;11.88;10.52;;;6.10;99.90;;;;;;5032571;28;20203;-78
2022/02/03 21:32:38;;;;;;;12.77;11.00;;;6.10;99.90;;;;;;5031966;28;20281;-78
2022/02/03 21:35:06;;;;;;;11.95;10.73;;;6.00;99.90;;;;;;5032113;28;20241;-78